Time,TemperatureF,DewpointF,PressureIn,WindDirection,WindDirectionDegrees,WindSpeedMPH,WindSpeedGustMPH,Humidity,HourlyPrecipIn,Conditions,Clouds,dailyrainin,SoftwareType,DateUTC
2013-09-07 00:02:00,53.0,50.0,30.09,WSW,254,0.0,0.0,88,0.00,,,0.00,weatherlink.com 1.10,2013-09-07 04:02:00,
2013-09-07 00:17:00,53.0,50.0,30.09,WSW,254,0.0,0.0,88,0.00,,,0.00,weatherlink.com 1.10,2013-09-07 04:17:00,
2013-09-07 00:32:00,52.7,49.0,30.09,WSW,254,0.0,0.0,88,0.00,,,0.00,weatherlink.com 1.10,2013-09-07 04:32:00,
2013-09-07 00:47:00,52.5,49.0,30.09,WSW,254,0.0,0.0,89,0.00,,,0.00,weatherlink.com 1.10,2013-09-07 04:47:00,
2013-09-07 01:02:00,52.4,49.0,30.09,WSW,254,0.0,0.0,89,0.00,,,0.00,weatherlink.com 1.10,2013-09-07 05:02:00,
2013-09-07 01:17:00,52.2,49.0,30.09,WSW,254,0.0,0.0,90,0.00,,,0.00,weatherlink.com 1.10,2013-09-07 05:17:00,
2013-09-07 01:32:00,51.9,49.0,30.08,WSW,254,0.0,0.0,91,0.00,,,0.00,weatherlink.com 1.10,2013-09-07 05:32:00,
2013-09-07 01:47:00,51.7,49.0,30.08,WSW,254,0.0,0.0,91,0.00,,,0.00,weatherlink.com 1.10,2013-09-07 05:47:00,
2013-09-07 02:02:00,51.5,49.0,30.08,WSW,254,0.0,0.0,92,0.00,,,0.00,weatherlink.com 1.10,2013-09-07 06:02:00,
2013-09-07 02:17:00,51.4,49.0,30.08,WSW,254,0.0,0.0,92,0.00,,,0.00,weatherlink.com 1.10,2013-09-07 06:17:00,
2013-09-07 02:32:00,51.5,50.0,30.07,WSW,254,0.0,0.0,94,0.00,,,0.00,weatherlink.com 1.10,2013-09-07 06:32:00,
2013-09-07 02:47:00,52.1,51.0,30.08,WSW,254,0.0,0.0,94,0.00,,,0.00,weatherlink.com 1.10,2013-09-07 06:47:00,
2013-09-07 03:02:00,52.5,51.0,30.08,WSW,254,0.0,0.0,93,0.00,,,0.00,weatherlink.com 1.10,2013-09-07 07:02:00,
2013-09-07 03:17:00,52.3,50.0,30.07,WSW,254,0.0,1.0,93,0.00,,,0.00,weatherlink.com 1.10,2013-09-07 07:17:00,
2013-09-07 03:32:00,52.2,50.0,30.07,WSW,254,0.0,0.0,93,0.00,,,0.00,weatherlink.com 1.10,2013-09-07 07:32:00,
2013-09-07 03:47:00,52.0,50.0,30.07,WSW,254,0.0,1.0,93,0.00,,,0.00,weatherlink.com 1.10,2013-09-07 07:47:00,
2013-09-07 04:02:00,51.8,50.0,30.07,WSW,254,0.0,0.0,93,0.00,,,0.00,weatherlink.com 1.10,2013-09-07 08:02:00,
2013-09-07 04:18:00,51.5,50.0,30.07,WSW,254,0.0,0.0,93,0.00,,,0.00,weatherlink.com 1.10,2013-09-07 08:18:00,
2013-09-07 04:33:00,51.8,50.0,30.07,WSW,254,0.0,1.0,94,0.00,,,0.00,weatherlink.com 1.10,2013-09-07 08:33:00,
2013-09-07 04:48:00,51.8,50.0,30.07,WSW,254,0.0,0.0,93,0.00,,,0.00,weatherlink.com 1.10,2013-09-07 08:48:00,
2013-09-07 05:03:00,51.5,50.0,30.07,WSW,254,0.0,0.0,93,0.00,,,0.00,weatherlink.com 1.10,2013-09-07 09:03:00,
2013-09-07 05:18:00,51.3,49.0,30.07,WSW,254,0.0,0.0,93,0.00,,,0.00,weatherlink.com 1.10,2013-09-07 09:18:00,
2013-09-07 05:33:00,51.2,49.0,30.07,WSW,254,0.0,0.0,93,0.00,,,0.00,weatherlink.com 1.10,2013-09-07 09:33:00,
2013-09-07 05:48:00,51.1,49.0,30.07,WSW,254,0.0,0.0,93,0.00,,,0.00,weatherlink.com 1.10,2013-09-07 09:48:00,
2013-09-07 06:03:00,51.3,49.0,30.07,WSW,254,0.0,0.0,93,0.00,,,0.00,weatherlink.com 1.10,2013-09-07 10:03:00,
2013-09-07 06:18:00,51.4,50.0,30.07,WSW,254,0.0,0.0,93,0.00,,,0.00,weatherlink.com 1.10,2013-09-07 10:18:00,
2013-09-07 06:33:00,51.6,50.0,30.07,WSW,254,0.0,0.0,93,0.00,,,0.00,weatherlink.com 1.10,2013-09-07 10:33:00,
2013-09-07 06:48:00,51.7,50.0,30.06,WSW,254,0.0,0.0,94,0.00,,,0.00,weatherlink.com 1.10,2013-09-07 10:48:00,
2013-09-07 07:03:00,53.1,52.0,30.06,WSW,254,0.0,1.0,94,0.00,,,0.00,weatherlink.com 1.10,2013-09-07 11:03:00,
2013-09-07 07:18:00,54.6,52.0,30.05,WSW,254,0.0,1.0,92,0.00,,,0.00,weatherlink.com 1.10,2013-09-07 11:18:00,
2013-09-07 07:33:00,56.2,53.0,30.05,WNW,286,0.0,4.0,90,0.00,,,0.00,weatherlink.com 1.10,2013-09-07 11:33:00,
2013-09-07 07:48:00,57.9,54.0,30.05,SW,234,0.0,2.0,87,0.00,,,0.00,weatherlink.com 1.10,2013-09-07 11:48:00,
2013-09-07 08:03:00,59.6,55.0,30.05,West,259,0.0,3.0,84,0.00,,,0.00,weatherlink.com 1.10,2013-09-07 12:03:00,
2013-09-07 08:18:00,61.0,56.0,30.05,South,189,0.0,2.0,82,0.00,,,0.00,weatherlink.com 1.10,2013-09-07 12:18:00,
2013-09-07 08:33:00,62.4,57.0,30.05,WSW,251,2.0,6.0,81,0.00,,,0.00,weatherlink.com 1.10,2013-09-07 12:33:00,
2013-09-07 08:48:00,63.6,57.0,30.05,West,279,0.0,7.0,78,0.00,,,0.00,weatherlink.com 1.10,2013-09-07 12:48:00,
2013-09-07 09:03:00,64.6,57.0,30.05,West,270,2.0,8.0,76,0.00,,,0.00,weatherlink.com 1.10,2013-09-07 13:03:00,
2013-09-07 09:18:00,65.7,56.0,30.04,NNE,12,0.0,7.0,72,0.00,,,0.00,weatherlink.com 1.10,2013-09-07 13:18:00,
2013-09-07 09:33:00,66.5,54.0,30.04,WNW,285,5.0,11.0,64,0.00,,,0.00,weatherlink.com 1.10,2013-09-07 13:33:00,
2013-09-07 09:48:00,67.2,52.0,30.03,NW,326,0.0,10.0,59,0.00,,,0.00,weatherlink.com 1.10,2013-09-07 13:48:00,
2013-09-07 10:03:00,67.9,53.0,30.03,SSW,206,1.0,6.0,60,0.00,,,0.00,weatherlink.com 1.10,2013-09-07 14:03:00,
2013-09-07 10:18:00,68.8,52.0,30.03,WSW,245,0.0,8.0,56,0.00,,,0.00,weatherlink.com 1.10,2013-09-07 14:18:00,
2013-09-07 10:34:00,69.9,51.0,30.02,SW,234,2.0,6.0,52,0.00,,,0.00,weatherlink.com 1.10,2013-09-07 14:34:00,
2013-09-07 10:49:00,69.9,50.0,30.02,SW,217,2.0,6.0,50,0.00,,,0.00,weatherlink.com 1.10,2013-09-07 14:49:00,
2013-09-07 11:04:00,70.6,51.0,30.01,WSW,241,3.0,7.0,51,0.00,,,0.00,weatherlink.com 1.10,2013-09-07 15:04:00,
2013-09-07 11:19:00,71.4,51.0,30.01,SW,224,1.0,6.0,49,0.00,,,0.00,weatherlink.com 1.10,2013-09-07 15:19:00,
2013-09-07 11:34:00,71.7,51.0,30.01,WSW,240,5.0,8.0,48,0.00,,,0.00,weatherlink.com 1.10,2013-09-07 15:34:00,
2013-09-07 11:49:00,72.5,52.0,30.00,WSW,237,0.0,5.0,49,0.00,,,0.00,weatherlink.com 1.10,2013-09-07 15:49:00,
2013-09-07 12:04:00,72.8,52.0,30.00,NW,317,1.0,6.0,49,0.00,,,0.00,weatherlink.com 1.10,2013-09-07 16:04:00,
2013-09-07 12:19:00,72.9,51.0,29.99,West,274,1.0,10.0,46,0.00,,,0.00,weatherlink.com 1.10,2013-09-07 16:19:00,
2013-09-07 12:34:00,72.9,52.0,29.98,WSW,244,2.0,8.0,48,0.00,,,0.00,weatherlink.com 1.10,2013-09-07 16:34:00,
2013-09-07 12:49:00,74.3,55.0,29.97,WSW,245,0.0,5.0,51,0.00,,,0.00,weatherlink.com 1.10,2013-09-07 16:49:00,
2013-09-07 13:04:00,74.6,55.0,29.96,WNW,282,0.0,9.0,50,0.00,,,0.00,weatherlink.com 1.10,2013-09-07 17:04:00,
2013-09-07 13:19:00,74.9,55.0,29.96,SW,228,2.0,7.0,51,0.00,,,0.00,weatherlink.com 1.10,2013-09-07 17:19:00,
2013-09-07 13:34:00,74.8,56.0,29.96,SW,236,0.0,6.0,52,0.00,,,0.00,weatherlink.com 1.10,2013-09-07 17:34:00,
2013-09-07 13:49:00,74.6,55.0,29.95,WNW,295,0.0,9.0,50,0.00,,,0.00,weatherlink.com 1.10,2013-09-07 17:49:00,
2013-09-07 14:04:00,74.7,56.0,29.95,SW,231,0.0,9.0,53,0.00,,,0.00,weatherlink.com 1.10,2013-09-07 18:04:00,
2013-09-07 14:19:00,74.9,55.0,29.94,SW,228,1.0,7.0,51,0.00,,,0.00,weatherlink.com 1.10,2013-09-07 18:19:00,
2013-09-07 14:34:00,74.4,56.0,29.94,SSW,200,1.0,10.0,52,0.00,,,0.00,weatherlink.com 1.10,2013-09-07 18:34:00,
2013-09-07 14:49:00,74.1,56.0,29.94,West,272,1.0,8.0,54,0.00,,,0.00,weatherlink.com 1.10,2013-09-07 18:49:00,
2013-09-07 15:04:00,73.7,56.0,29.93,WSW,241,0.0,10.0,55,0.00,,,0.00,weatherlink.com 1.10,2013-09-07 19:04:00,
2013-09-07 15:19:00,74.1,57.0,29.93,WSW,257,0.0,8.0,55,0.00,,,0.00,weatherlink.com 1.10,2013-09-07 19:19:00,
2013-09-07 15:34:00,73.9,57.0,29.93,West,278,2.0,6.0,55,0.00,,,0.00,weatherlink.com 1.10,2013-09-07 19:34:00,
2013-09-07 15:49:00,73.8,56.0,29.93,SSW,200,5.0,8.0,54,0.00,,,0.00,weatherlink.com 1.10,2013-09-07 19:49:00,
2013-09-07 16:04:00,72.0,56.0,29.93,ENE,74,1.0,9.0,58,0.00,,,0.00,weatherlink.com 1.10,2013-09-07 20:04:00,
2013-09-07 16:19:00,71.2,56.0,29.92,West,265,0.0,7.0,59,0.00,,,0.00,weatherlink.com 1.10,2013-09-07 20:19:00,
2013-09-07 16:34:00,70.3,56.0,29.92,West,262,2.0,5.0,60,0.00,,,0.00,weatherlink.com 1.10,2013-09-07 20:34:00,
2013-09-07 16:49:00,70.1,57.0,29.92,SW,224,0.0,4.0,63,0.00,,,0.00,weatherlink.com 1.10,2013-09-07 20:49:00,
2013-09-07 17:04:00,70.9,56.0,29.91,West,260,3.0,5.0,60,0.00,,,0.00,weatherlink.com 1.10,2013-09-07 21:04:00,
2013-09-07 17:19:00,70.3,56.0,29.90,WNW,293,0.0,6.0,60,0.00,,,0.00,weatherlink.com 1.10,2013-09-07 21:19:00,
2013-09-07 17:34:00,70.6,56.0,29.91,WSW,243,2.0,5.0,60,0.00,,,0.00,weatherlink.com 1.10,2013-09-07 21:34:00,
2013-09-07 17:49:00,69.4,55.0,29.90,WNW,282,0.0,7.0,61,0.00,,,0.00,weatherlink.com 1.10,2013-09-07 21:49:00,
2013-09-07 18:04:00,68.3,56.0,29.91,WSW,240,1.0,5.0,65,0.00,,,0.00,weatherlink.com 1.10,2013-09-07 22:04:00,
2013-09-07 18:19:00,67.7,56.0,29.91,West,260,2.0,3.0,67,0.00,,,0.00,weatherlink.com 1.10,2013-09-07 22:19:00,
2013-09-07 18:34:00,67.2,57.0,29.90,SW,217,0.0,4.0,69,0.00,,,0.00,weatherlink.com 1.10,2013-09-07 22:34:00,
2013-09-07 18:49:00,66.6,57.0,29.90,SSW,211,0.0,2.0,71,0.00,,,0.00,weatherlink.com 1.10,2013-09-07 22:49:00,
2013-09-07 19:04:00,65.9,57.0,29.90,WSW,248,0.0,3.0,73,0.00,,,0.00,weatherlink.com 1.10,2013-09-07 23:04:00,
2013-09-07 19:19:00,65.3,57.0,29.89,West,263,0.0,2.0,75,0.00,,,0.00,weatherlink.com 1.10,2013-09-07 23:19:00,
2013-09-07 19:34:00,64.9,57.0,29.90,West,260,0.0,8.0,76,0.00,,,0.00,weatherlink.com 1.10,2013-09-07 23:34:00,
2013-09-07 19:49:00,64.5,58.0,29.90,WSW,241,1.0,3.0,78,0.00,,,0.00,weatherlink.com 1.10,2013-09-07 23:49:00,
2013-09-07 20:04:00,64.3,58.0,29.90,WSW,250,1.0,2.0,80,0.00,,,0.00,weatherlink.com 1.10,2013-09-08 00:04:00,
2013-09-07 20:19:00,64.0,58.0,29.90,SW,234,0.0,2.0,81,0.00,,,0.00,weatherlink.com 1.10,2013-09-08 00:19:00,
2013-09-07 20:34:00,63.9,58.0,29.90,SW,224,0.0,2.0,80,0.00,,,0.00,weatherlink.com 1.10,2013-09-08 00:34:00,
2013-09-07 20:49:00,64.0,58.0,29.90,West,260,0.0,2.0,80,0.00,,,0.00,weatherlink.com 1.10,2013-09-08 00:49:00,
2013-09-07 21:04:00,64.1,57.0,29.90,SW,227,0.0,5.0,79,0.00,,,0.00,weatherlink.com 1.10,2013-09-08 01:04:00,
2013-09-07 21:19:00,64.3,58.0,29.90,WNW,285,1.0,3.0,79,0.00,,,0.00,weatherlink.com 1.10,2013-09-08 01:19:00,
2013-09-07 21:34:00,64.3,57.0,29.90,WSW,250,0.0,2.0,78,0.00,,,0.00,weatherlink.com 1.10,2013-09-08 01:34:00,
2013-09-07 21:49:00,64.4,57.0,29.89,WSW,258,0.0,5.0,78,0.00,,,0.00,weatherlink.com 1.10,2013-09-08 01:49:00,
2013-09-07 22:04:00,64.6,58.0,29.89,WSW,245,0.0,3.0,78,0.00,,,0.00,weatherlink.com 1.10,2013-09-08 02:04:00,
2013-09-07 22:19:00,64.6,58.0,29.89,WNW,293,0.0,4.0,78,0.00,,,0.00,weatherlink.com 1.10,2013-09-08 02:19:00,
2013-09-07 22:35:00,64.5,58.0,29.88,WSW,248,0.0,2.0,80,0.00,,,0.00,weatherlink.com 1.10,2013-09-08 02:35:00,
2013-09-07 22:50:00,64.5,58.0,29.88,NW,317,0.0,1.0,80,0.00,,,0.00,weatherlink.com 1.10,2013-09-08 02:50:00,
2013-09-07 23:05:00,64.6,59.0,29.88,WNW,297,0.0,2.0,81,0.00,,,0.00,weatherlink.com 1.10,2013-09-08 03:05:00,
2013-09-07 23:20:00,64.5,59.0,29.87,SSW,207,2.0,2.0,81,0.00,,,0.00,weatherlink.com 1.10,2013-09-08 03:20:00,
2013-09-07 23:35:00,64.5,59.0,29.87,SW,228,0.0,2.0,81,0.00,,,0.00,weatherlink.com 1.10,2013-09-08 03:35:00,
2013-09-07 23:50:00,64.6,59.0,29.87,West,274,0.0,2.0,81,0.00,,,0.00,weatherlink.com 1.10,2013-09-08 03:50:00,